createdAt,value
2018-11-21T00:00:17.289Z,6.32
2018-11-21T00:01:17.275Z,6.28
2018-11-21T00:02:17.258Z,6.35
2018-11-21T00:03:17.250Z,6.25
2018-11-21T00:04:17.240Z,6.25
2018-11-21T00:05:17.229Z,6.21
2018-11-21T00:06:17.216Z,6.21
2018-11-21T00:07:17.206Z,6.17
2018-11-21T00:08:17.190Z,6.10
2018-11-21T00:09:17.177Z,6.10
2018-11-21T00:10:17.165Z,6.13
2018-11-21T00:11:17.155Z,6.05
2018-11-21T00:12:17.147Z,6.14
2018-11-21T00:13:17.135Z,6.17
2018-11-21T00:14:17.123Z,6.10
2018-11-21T00:15:17.112Z,6.05
2018-11-21T00:16:17.095Z,6.05
2018-11-21T00:17:17.083Z,5.96
2018-11-21T00:18:17.075Z,5.90
2018-11-21T00:19:17.063Z,5.90
2018-11-21T00:20:17.047Z,5.92
2018-11-21T00:21:17.036Z,5.90
2018-11-21T00:22:17.024Z,5.88
2018-11-21T00:23:17.013Z,5.90
2018-11-21T00:24:17.005Z,5.87
2018-11-21T00:25:16.994Z,5.85
2018-11-21T00:26:16.981Z,5.80
2018-11-21T00:27:16.972Z,5.87
2018-11-21T00:28:16.953Z,5.81
2018-11-21T00:29:16.942Z,5.88
2018-11-21T00:30:16.929Z,5.77
2018-11-21T00:31:16.918Z,5.81
2018-11-21T00:32:16.909Z,5.78
2018-11-21T00:33:16.903Z,5.67
2018-11-21T00:34:16.881Z,5.77
2018-11-21T00:35:16.869Z,5.74
2018-11-21T00:36:16.863Z,5.83
2018-11-21T00:37:16.851Z,5.66
2018-11-21T00:38:16.838Z,5.66
2018-11-21T00:39:16.826Z,5.66
2018-11-21T00:40:16.810Z,5.58
2018-11-21T00:41:16.798Z,5.58
2018-11-21T00:42:16.786Z,5.63
2018-11-21T00:43:16.775Z,5.62
2018-11-21T00:44:16.768Z,5.65
2018-11-21T00:45:16.756Z,5.63
2018-11-21T00:46:16.742Z,5.60
2018-11-21T00:47:16.730Z,5.63
2018-11-21T00:48:16.713Z,5.62
2018-11-21T00:49:16.701Z,5.56
2018-11-21T00:50:16.696Z,5.52
2018-11-21T00:51:16.683Z,5.51
2018-11-21T00:52:16.666Z,5.56
2018-11-21T00:53:16.656Z,5.49
2018-11-21T00:54:16.642Z,5.59
2018-11-21T00:55:16.629Z,5.59
2018-11-21T00:56:16.623Z,5.49
2018-11-21T00:57:16.611Z,5.55
2018-11-21T00:58:16.598Z,5.49
2018-11-21T00:59:16.587Z,5.48
2018-11-21T01:00:16.577Z,5.48
2018-11-21T01:01:16.557Z,5.42
2018-11-21T01:02:16.547Z,5.48
2018-11-21T01:03:16.533Z,5.51
2018-11-21T01:04:16.527Z,5.41
2018-11-21T01:05:16.519Z,5.44
2018-11-21T01:06:16.500Z,5.41
2018-11-21T01:07:16.485Z,5.45
2018-11-21T01:08:16.478Z,5.41
2018-11-21T01:09:16.466Z,5.41
2018-11-21T01:10:16.455Z,5.41
2018-11-21T01:11:16.442Z,5.47
2018-11-21T01:12:16.426Z,5.38
2018-11-21T01:13:16.412Z,5.35
2018-11-21T01:14:16.399Z,5.33
2018-11-21T01:15:16.389Z,5.29
2018-11-21T01:16:16.383Z,5.35
2018-11-21T01:17:16.369Z,5.26
2018-11-21T01:18:16.358Z,5.33
2018-11-21T01:19:16.345Z,5.22
2018-11-21T01:20:16.330Z,5.26
2018-11-21T01:21:16.316Z,5.12
2018-11-21T01:22:16.308Z,5.22
2018-11-21T01:23:16.296Z,5.12
2018-11-21T01:24:16.285Z,5.26
2018-11-21T01:25:16.269Z,5.09
2018-11-21T01:26:16.259Z,5.19
2018-11-21T01:27:16.245Z,5.11
2018-11-21T01:28:16.236Z,5.14
2018-11-21T01:29:16.233Z,5.22
2018-11-21T01:30:16.211Z,5.22
2018-11-21T01:31:16.201Z,5.23
2018-11-21T01:32:16.183Z,5.11
2018-11-21T01:33:16.171Z,5.15
2018-11-21T01:34:16.162Z,5.19
2018-11-21T01:35:16.147Z,5.15
2018-11-21T01:36:16.139Z,5.14
2018-11-21T01:37:16.127Z,5.15
2018-11-21T01:38:16.111Z,5.06
2018-11-21T01:39:16.098Z,5.09
2018-11-21T01:40:16.093Z,5.11
2018-11-21T01:41:16.080Z,5.02
2018-11-21T01:42:16.068Z,5.05
2018-11-21T01:43:16.054Z,5.01
2018-11-21T01:44:16.039Z,4.94
2018-11-21T01:45:16.026Z,4.94
2018-11-21T01:46:16.013Z,4.96
2018-11-21T01:47:16.002Z,4.84
2018-11-21T01:48:15.994Z,4.80
2018-11-21T01:49:15.983Z,4.69
2018-11-21T01:50:15.970Z,4.84
2018-11-21T01:51:15.959Z,4.67
2018-11-21T01:52:15.942Z,4.57
2018-11-21T01:53:15.931Z,4.53
2018-11-21T01:54:15.923Z,4.47
2018-11-21T01:55:15.912Z,4.47
2018-11-21T01:56:15.897Z,4.36
2018-11-21T01:57:15.881Z,4.43
2018-11-21T01:58:15.868Z,4.43
2018-11-21T01:59:15.857Z,4.42
2018-11-21T02:00:15.850Z,4.36
2018-11-21T02:01:15.838Z,4.29
2018-11-21T02:02:15.825Z,4.39
2018-11-21T02:03:15.817Z,4.26
2018-11-21T02:04:15.795Z,4.31
2018-11-21T02:05:15.789Z,4.29
2018-11-21T02:06:15.771Z,4.31
2018-11-21T02:07:15.759Z,4.24
2018-11-21T02:08:15.753Z,4.25
2018-11-21T02:09:15.740Z,4.28
2018-11-21T02:10:15.724Z,4.16
2018-11-21T02:11:15.710Z,4.18
2018-11-21T02:12:15.702Z,4.16
2018-11-21T02:13:15.691Z,4.08
2018-11-21T02:14:15.678Z,4.08
2018-11-21T02:15:15.666Z,4.11
2018-11-21T02:16:15.650Z,4.06
2018-11-21T02:17:15.637Z,3.98
2018-11-21T02:18:15.625Z,3.98
2018-11-21T02:19:15.613Z,3.96
2018-11-21T02:20:15.606Z,4.00
2018-11-21T02:21:15.595Z,3.99
2018-11-21T02:22:15.579Z,3.90
2018-11-21T02:23:15.568Z,3.82
2018-11-21T02:24:15.551Z,3.86
2018-11-21T02:25:15.539Z,3.75
2018-11-21T02:26:15.531Z,3.77
2018-11-21T02:27:15.518Z,3.86
2018-11-21T02:28:15.501Z,3.80
2018-11-21T02:29:15.490Z,3.78
2018-11-21T02:30:15.476Z,3.72
2018-11-21T02:31:15.464Z,3.68
2018-11-21T02:32:15.458Z,3.72
2018-11-21T02:33:15.446Z,3.68
2018-11-21T02:34:15.434Z,3.75
2018-11-21T02:35:15.421Z,3.72
2018-11-21T02:36:15.402Z,3.57
2018-11-21T02:37:15.390Z,3.67
2018-11-21T02:38:15.377Z,3.64
2018-11-21T02:39:15.364Z,3.72
2018-11-21T02:40:15.358Z,3.64
2018-11-21T02:41:15.345Z,3.68
2018-11-21T02:42:15.326Z,3.63
2018-11-21T02:43:15.315Z,3.56
2018-11-21T02:44:15.307Z,3.60
2018-11-21T02:45:15.295Z,3.54
2018-11-21T02:46:15.280Z,3.67
2018-11-21T02:47:15.270Z,3.57
2018-11-21T02:48:15.282Z,3.56
2018-11-21T02:49:15.240Z,3.52
2018-11-21T02:50:15.230Z,3.52
2018-11-21T02:51:15.215Z,3.54
2018-11-21T02:52:15.207Z,3.54
2018-11-21T02:53:15.197Z,3.54
2018-11-21T02:54:15.181Z,3.52
2018-11-21T02:55:15.169Z,3.56
2018-11-21T02:56:15.154Z,3.54
2018-11-21T02:57:15.139Z,3.54
2018-11-21T02:58:15.130Z,3.52
2018-11-21T02:59:15.119Z,3.53
2018-11-21T03:00:15.101Z,3.49
2018-11-21T03:01:15.091Z,3.46
2018-11-21T03:02:15.076Z,3.42
2018-11-21T03:03:15.063Z,3.41
2018-11-21T03:04:15.057Z,3.39
2018-11-21T03:05:15.045Z,3.42
2018-11-21T03:06:15.029Z,3.37
2018-11-21T03:07:15.019Z,3.31
2018-11-21T03:08:15.001Z,3.33
2018-11-21T03:09:14.988Z,3.35
2018-11-21T03:10:14.974Z,3.35
2018-11-21T03:11:14.964Z,3.30
2018-11-21T03:12:14.954Z,3.33
2018-11-21T03:13:14.943Z,3.30
2018-11-21T03:14:14.925Z,3.33
2018-11-21T03:15:14.912Z,3.35
2018-11-21T03:16:14.908Z,3.22
2018-11-21T03:17:14.891Z,3.33
2018-11-21T03:18:14.883Z,3.31
2018-11-21T03:19:14.867Z,3.31
2018-11-21T03:20:14.849Z,3.33
2018-11-21T03:21:14.837Z,3.22
2018-11-21T03:22:14.827Z,3.25
2018-11-21T03:23:14.816Z,3.16
2018-11-21T03:24:14.798Z,3.13
2018-11-21T03:25:14.790Z,3.17
2018-11-21T03:26:14.776Z,3.19
2018-11-21T03:27:14.760Z,3.17
2018-11-21T03:28:14.753Z,3.12
2018-11-21T03:29:14.746Z,3.10
2018-11-21T03:30:14.722Z,3.10
2018-11-21T03:31:14.709Z,3.13
2018-11-21T03:32:14.706Z,3.12
2018-11-21T03:33:14.694Z,3.10
2018-11-21T03:34:14.675Z,2.99
2018-11-21T03:35:14.664Z,3.02
2018-11-21T03:36:14.646Z,2.98
2018-11-21T03:37:14.633Z,3.05
2018-11-21T03:38:14.619Z,3.07
2018-11-21T03:39:14.608Z,3.05
2018-11-21T03:40:14.603Z,3.12
2018-11-21T03:41:14.586Z,2.99
2018-11-21T03:42:14.577Z,3.02
2018-11-21T03:43:14.561Z,3.05
2018-11-21T03:44:14.543Z,3.02
2018-11-21T03:45:14.531Z,2.97
2018-11-21T03:46:14.522Z,3.05
2018-11-21T03:47:14.510Z,3.01
2018-11-21T03:48:14.492Z,2.99
2018-11-21T03:49:14.480Z,2.99
2018-11-21T03:50:14.465Z,3.05
2018-11-21T03:51:14.454Z,2.99
2018-11-21T03:52:14.448Z,3.02
2018-11-21T03:53:14.432Z,2.98
2018-11-21T03:54:14.418Z,2.87
2018-11-21T03:55:14.405Z,2.83
2018-11-21T03:56:14.394Z,2.87
2018-11-21T03:57:14.377Z,2.90
2018-11-21T03:58:14.363Z,2.86
2018-11-21T03:59:14.349Z,2.73
2018-11-21T04:00:14.349Z,2.81
2018-11-21T04:01:14.334Z,2.76
2018-11-21T04:02:14.314Z,2.79
2018-11-21T04:03:14.298Z,2.71
2018-11-21T04:04:14.308Z,2.76
2018-11-21T04:05:14.277Z,2.69
2018-11-21T04:06:14.262Z,2.65
2018-11-21T04:07:14.252Z,2.71
2018-11-21T04:08:14.233Z,2.73
2018-11-21T04:09:14.225Z,2.61
2018-11-21T04:10:14.206Z,2.68
2018-11-21T04:11:14.195Z,2.71
2018-11-21T04:12:14.226Z,2.65
2018-11-21T04:13:14.179Z,2.63
2018-11-21T04:14:14.160Z,2.63
2018-11-21T04:15:14.146Z,2.65
2018-11-21T04:16:14.128Z,2.65
2018-11-21T04:17:14.116Z,2.61
2018-11-21T04:18:14.108Z,2.55
2018-11-21T04:19:14.094Z,2.61
2018-11-21T04:20:14.078Z,2.63
2018-11-21T04:21:14.064Z,2.59
2018-11-21T04:22:14.048Z,2.61
2018-11-21T04:23:14.037Z,2.62
2018-11-21T04:24:14.031Z,2.62
2018-11-21T04:25:14.022Z,2.58
2018-11-21T04:26:14.002Z,2.59
2018-11-21T04:27:13.988Z,2.61
2018-11-21T04:28:13.969Z,2.62
2018-11-21T04:29:13.958Z,2.59
2018-11-21T04:30:13.945Z,2.58
2018-11-21T04:31:13.931Z,2.61
2018-11-21T04:32:13.921Z,2.61
2018-11-21T04:33:13.909Z,2.66
2018-11-21T04:34:13.890Z,2.63
2018-11-21T04:35:13.878Z,2.65
2018-11-21T04:36:13.873Z,2.59
2018-11-21T04:37:13.858Z,2.62
2018-11-21T04:38:13.844Z,2.62
2018-11-21T04:39:13.831Z,2.48
2018-11-21T04:40:13.812Z,2.53
2018-11-21T04:41:13.800Z,2.55
2018-11-21T04:42:13.788Z,2.58
2018-11-21T04:43:13.774Z,2.51
2018-11-21T04:44:13.766Z,2.45
2018-11-21T04:45:13.754Z,2.47
2018-11-21T04:46:13.739Z,2.48
2018-11-21T04:47:13.727Z,2.44
2018-11-21T04:48:13.709Z,2.41
2018-11-21T04:49:13.697Z,2.37
2018-11-21T04:50:13.687Z,2.29
2018-11-21T04:51:13.673Z,2.36
2018-11-21T04:52:13.661Z,2.23
2018-11-21T04:53:13.644Z,2.23
2018-11-21T04:54:13.630Z,2.25
2018-11-21T04:55:13.617Z,2.26
2018-11-21T04:56:13.609Z,2.23
2018-11-21T04:57:13.596Z,2.23
2018-11-21T04:58:13.583Z,2.18
2018-11-21T04:59:13.570Z,2.19
2018-11-21T05:00:13.552Z,2.18
2018-11-21T05:01:13.539Z,2.20
2018-11-21T05:02:13.526Z,2.25
2018-11-21T05:03:13.511Z,2.20
2018-11-21T05:04:13.504Z,2.30
2018-11-21T05:05:13.492Z,2.22
2018-11-21T05:06:13.471Z,2.23
2018-11-21T05:07:13.458Z,2.29
2018-11-21T05:08:13.449Z,2.23
2018-11-21T05:09:13.436Z,2.32
2018-11-21T05:10:13.427Z,2.26
2018-11-21T05:11:13.415Z,2.27
2018-11-21T05:12:13.393Z,2.19
2018-11-21T05:13:13.379Z,2.22
2018-11-21T05:14:13.365Z,2.18
2018-11-21T05:15:13.352Z,2.09
2018-11-21T05:16:13.346Z,2.07
2018-11-21T05:17:13.332Z,2.12
2018-11-21T05:18:13.316Z,2.05
2018-11-21T05:19:13.304Z,2.12
2018-11-21T05:20:13.293Z,2.02
2018-11-21T05:21:13.273Z,2.05
2018-11-21T05:22:13.264Z,2.12
2018-11-21T05:23:13.249Z,2.12
2018-11-21T05:24:13.236Z,2.07
2018-11-21T05:25:13.221Z,2.15
2018-11-21T05:26:13.205Z,2.18
2018-11-21T05:27:13.193Z,2.19
2018-11-21T05:28:13.183Z,2.12
2018-11-21T05:29:13.169Z,2.19
2018-11-21T05:30:13.165Z,2.12
2018-11-21T05:31:13.143Z,2.15
2018-11-21T05:32:13.130Z,2.18
2018-11-21T05:33:13.111Z,2.08
2018-11-21T05:34:13.100Z,2.11
2018-11-21T05:35:13.085Z,2.08
2018-11-21T05:36:13.077Z,2.04
2018-11-21T05:37:13.064Z,2.04
2018-11-21T05:38:13.044Z,2.01
2018-11-21T05:39:13.031Z,2.04
2018-11-21T05:40:13.022Z,2.14
2018-11-21T05:41:13.010Z,2.02
2018-11-21T05:42:12.995Z,2.12
2018-11-21T05:43:12.984Z,2.08
2018-11-21T05:44:12.968Z,2.04
2018-11-21T05:45:12.951Z,2.05
2018-11-21T05:46:12.939Z,2.02
2018-11-21T05:47:12.928Z,2.07
2018-11-21T05:48:12.914Z,2.05
2018-11-21T05:49:12.901Z,2.04
2018-11-21T05:50:12.889Z,2.05
2018-11-21T05:51:12.874Z,2.04
2018-11-21T05:52:12.859Z,2.00
2018-11-21T05:53:12.845Z,2.04
2018-11-21T05:54:12.834Z,1.98
2018-11-21T05:55:12.824Z,2.05
2018-11-21T05:56:12.803Z,1.98
2018-11-21T05:57:12.789Z,2.09
2018-11-21T05:58:12.775Z,1.95
2018-11-21T05:59:12.761Z,2.00
2018-11-21T06:00:12.753Z,1.98
2018-11-21T06:01:12.739Z,1.89
2018-11-21T06:02:12.725Z,1.95
2018-11-21T06:03:12.711Z,1.86
2018-11-21T06:04:12.693Z,1.88
2018-11-21T06:05:12.681Z,1.83
2018-11-21T06:06:12.669Z,1.79
2018-11-21T06:07:12.653Z,1.82
2018-11-21T06:08:12.644Z,1.68
2018-11-21T06:09:12.635Z,1.74
2018-11-21T06:10:12.612Z,1.71
2018-11-21T06:11:12.600Z,1.79
2018-11-21T06:12:12.593Z,1.72
2018-11-21T06:13:12.577Z,1.72
2018-11-21T06:14:12.564Z,1.85
2018-11-21T06:15:12.556Z,1.82
2018-11-21T06:16:12.531Z,1.86
2018-11-21T06:17:12.518Z,1.81
2018-11-21T06:18:12.504Z,1.81
2018-11-21T06:19:12.489Z,1.79
2018-11-21T06:20:12.483Z,1.83
2018-11-21T06:21:12.467Z,1.81
2018-11-21T06:22:12.454Z,1.92
2018-11-21T06:23:12.444Z,1.89
2018-11-21T06:24:12.421Z,2.04
2018-11-21T06:25:12.408Z,1.95
2018-11-21T06:26:12.400Z,1.93
2018-11-21T06:27:12.389Z,2.05
2018-11-21T06:28:12.368Z,2.00
2018-11-21T06:29:12.354Z,2.01
2018-11-21T06:30:12.340Z,2.05
2018-11-21T06:31:12.330Z,2.05
2018-11-21T06:32:12.317Z,2.05
2018-11-21T06:33:12.304Z,2.00
2018-11-21T06:34:12.289Z,2.08
2018-11-21T06:35:12.279Z,2.02
2018-11-21T06:36:12.259Z,2.02
2018-11-21T06:37:12.246Z,2.08
2018-11-21T06:38:12.232Z,2.20
2018-11-21T06:39:12.217Z,2.22
2018-11-21T06:40:12.212Z,2.19
2018-11-21T06:41:12.195Z,2.18
2018-11-21T06:42:12.177Z,2.19
2018-11-21T06:43:12.163Z,2.15
2018-11-21T06:44:12.154Z,2.14
2018-11-21T06:45:12.142Z,2.15
2018-11-21T06:46:12.127Z,2.18
2018-11-21T06:47:12.116Z,2.07
2018-11-21T06:48:12.097Z,2.12
2018-11-21T06:49:12.083Z,2.15
2018-11-21T06:50:12.068Z,2.15
2018-11-21T06:51:12.059Z,2.08
2018-11-21T06:52:12.047Z,2.18
2018-11-21T06:53:12.033Z,2.09
2018-11-21T06:54:12.018Z,2.09
2018-11-21T06:55:12.004Z,2.18
2018-11-21T06:56:11.988Z,2.11
2018-11-21T06:57:11.973Z,2.19
2018-11-21T06:58:11.964Z,2.15
2018-11-21T06:59:11.951Z,2.15
2018-11-21T07:00:11.932Z,2.15
2018-11-21T07:01:11.919Z,2.22
2018-11-21T07:02:11.906Z,2.20
2018-11-21T07:03:11.893Z,2.19
2018-11-21T07:04:11.882Z,2.20
2018-11-21T07:05:11.869Z,2.19
2018-11-21T07:06:11.855Z,2.20
2018-11-21T07:07:11.843Z,2.20
2018-11-21T07:08:11.823Z,2.20
2018-11-21T07:09:11.812Z,2.23
2018-11-21T07:10:11.796Z,2.20
2018-11-21T07:11:11.782Z,2.22
2018-11-21T07:12:11.776Z,2.20
2018-11-21T07:13:11.763Z,2.20
2018-11-21T07:14:11.742Z,2.30
2018-11-21T07:15:11.728Z,2.30
2018-11-21T07:16:11.719Z,2.33
2018-11-21T07:17:11.705Z,2.27
2018-11-21T07:18:11.693Z,2.32
2018-11-21T07:19:11.679Z,2.27
2018-11-21T07:20:11.660Z,2.36
2018-11-21T07:21:11.647Z,2.32
2018-11-21T07:22:11.633Z,2.38
2018-11-21T07:23:11.619Z,2.32
2018-11-21T07:24:11.613Z,2.40
2018-11-21T07:25:11.598Z,2.44
2018-11-21T07:26:11.583Z,2.47
2018-11-21T07:27:11.569Z,2.45
2018-11-21T07:28:13.147Z,2.47
2018-11-21T07:29:11.538Z,2.48
2018-11-21T07:30:11.528Z,2.48
2018-11-21T07:31:11.514Z,2.61
2018-11-21T07:32:11.497Z,2.61
2018-11-21T07:33:11.484Z,2.62
2018-11-21T07:34:11.471Z,2.71
2018-11-21T07:35:14.670Z,2.81
2018-11-21T07:36:11.447Z,2.79
2018-11-21T07:37:11.436Z,2.86
2018-11-21T07:38:11.421Z,2.90
2018-11-21T07:39:11.412Z,2.90
2018-11-21T07:40:11.394Z,2.84
2018-11-21T07:41:11.377Z,2.98
2018-11-21T07:42:11.364Z,3.02
2018-11-21T07:43:11.351Z,3.01
2018-11-21T07:44:11.341Z,3.08
2018-11-21T07:45:11.353Z,3.02
2018-11-21T07:46:11.309Z,3.12
2018-11-21T07:47:11.296Z,3.15
2018-11-21T07:48:11.287Z,3.33
2018-11-21T07:49:11.275Z,3.39
2018-11-21T07:50:11.264Z,3.52
2018-11-21T07:51:11.248Z,3.63
2018-11-21T07:52:11.233Z,3.80
2018-11-21T07:53:11.218Z,3.99
2018-11-21T07:54:11.208Z,4.14
2018-11-21T07:55:11.193Z,4.26
2018-11-21T07:56:11.184Z,4.50
2018-11-21T07:57:11.173Z,4.83
2018-11-21T07:58:11.157Z,5.22
2018-11-21T07:59:11.145Z,5.42
2018-11-21T08:00:11.128Z,5.67
2018-11-21T08:01:11.116Z,5.67
2018-11-21T08:02:11.108Z,5.45
2018-11-21T08:03:11.100Z,5.51
2018-11-21T08:04:11.079Z,5.67
2018-11-21T08:05:11.078Z,5.62
2018-11-21T08:06:11.058Z,5.40
2018-11-21T08:07:11.045Z,4.97
2018-11-21T08:08:11.039Z,4.57
2018-11-21T08:09:11.027Z,4.47
2018-11-21T08:10:11.014Z,4.44
2018-11-21T08:11:11.006Z,4.20
2018-11-21T08:12:10.988Z,4.02
2018-11-21T08:13:10.976Z,4.04
2018-11-21T08:14:10.962Z,4.04
2018-11-21T08:15:10.952Z,4.28
2018-11-21T08:16:10.944Z,4.32
2018-11-21T08:17:10.934Z,4.29
2018-11-21T08:18:10.916Z,4.31
2018-11-21T08:19:10.905Z,4.39
2018-11-21T08:20:10.899Z,5.02
2018-11-21T08:21:10.886Z,5.74
2018-11-21T08:22:10.875Z,6.08
2018-11-21T08:23:10.869Z,6.35
2018-11-21T08:24:10.849Z,6.24
2018-11-21T08:25:10.837Z,5.78
2018-11-21T08:26:10.826Z,5.47
2018-11-21T08:27:10.814Z,5.15
2018-11-21T08:28:10.809Z,4.96
2018-11-21T08:29:10.798Z,4.90
2018-11-21T08:30:10.793Z,4.97
2018-11-21T08:31:10.774Z,4.87
2018-11-21T08:32:10.759Z,4.84
2018-11-21T08:33:10.748Z,4.64
2018-11-21T08:34:10.741Z,4.56
2018-11-21T08:35:10.731Z,4.87
2018-11-21T08:36:10.715Z,5.01
2018-11-21T08:37:10.704Z,4.93
2018-11-21T08:38:10.693Z,4.96
2018-11-21T08:39:10.681Z,4.88
2018-11-21T08:40:10.675Z,4.84
2018-11-21T08:41:10.664Z,4.79
2018-11-21T08:42:10.652Z,4.77
2018-11-21T08:43:10.641Z,4.87
2018-11-21T08:44:10.625Z,4.91
2018-11-21T08:45:10.614Z,4.86
2018-11-21T08:46:10.601Z,4.75
2018-11-21T08:47:10.594Z,4.71
2018-11-21T08:48:10.583Z,4.72
2018-11-21T08:49:10.573Z,4.77
2018-11-21T08:50:10.557Z,4.80
2018-11-21T08:51:10.543Z,4.77
2018-11-21T08:52:10.537Z,4.80
2018-11-21T08:53:10.527Z,4.94
2018-11-21T08:54:10.513Z,4.94
2018-11-21T08:55:10.505Z,5.05
2018-11-21T08:56:10.487Z,5.04
2018-11-21T08:57:10.474Z,5.55
2018-11-21T08:58:10.462Z,6.21
2018-11-21T08:59:10.451Z,7.14
2018-11-21T09:00:10.444Z,7.89
2018-11-21T09:01:10.433Z,8.64
2018-11-21T09:02:10.423Z,8.96
2018-11-21T09:03:10.411Z,9.58
2018-11-21T09:04:10.397Z,10.02
2018-11-21T09:05:10.387Z,10.78
2018-11-21T09:06:10.385Z,11.11
2018-11-21T09:07:10.372Z,10.98
2018-11-21T09:08:10.365Z,11.38
2018-11-21T09:09:10.351Z,11.82
2018-11-21T09:10:10.342Z,12.23
2018-11-21T09:11:10.335Z,12.73
2018-11-21T09:12:11.156Z,12.88
2018-11-21T09:13:10.323Z,12.51
2018-11-21T09:14:10.315Z,13.21
2018-11-21T09:15:10.310Z,13.61
2018-11-21T09:16:10.300Z,13.93
2018-11-21T09:17:10.293Z,14.34
2018-11-21T09:18:10.287Z,14.30
2018-11-21T09:19:10.281Z,13.83
2018-11-21T09:20:10.283Z,13.44
2018-11-21T09:21:10.278Z,12.66
2018-11-21T09:22:10.337Z,12.37
2018-11-21T09:23:10.260Z,11.56
2018-11-21T09:24:10.260Z,10.46
2018-11-21T09:25:10.256Z,9.74
2018-11-21T09:26:10.249Z,9.32
2018-11-21T09:27:10.266Z,9.03
2018-11-21T09:28:10.234Z,8.78
2018-11-21T09:29:10.231Z,8.39
2018-11-21T09:30:10.223Z,8.45
2018-11-21T09:31:10.216Z,8.88
2018-11-21T09:32:10.257Z,9.74
2018-11-21T09:33:10.209Z,10.86
2018-11-21T09:34:10.203Z,11.60
2018-11-21T09:35:10.195Z,12.38
2018-11-21T09:36:10.185Z,13.16
2018-11-21T09:37:10.181Z,12.77
2018-11-21T09:38:10.181Z,12.43
2018-11-21T09:39:10.175Z,12.69
2018-11-21T09:40:10.161Z,12.94
2018-11-21T09:41:10.160Z,13.36
2018-11-21T09:42:10.151Z,13.63
2018-11-21T09:43:10.145Z,14.16
2018-11-21T09:44:10.144Z,14.64
2018-11-21T09:45:10.139Z,14.71
2018-11-21T09:46:10.134Z,14.93
2018-11-21T09:47:10.131Z,15.51
2018-11-21T09:48:10.123Z,15.93
2018-11-21T09:49:10.118Z,16.51
2018-11-21T09:50:10.114Z,16.44
2018-11-21T09:51:10.112Z,16.06
2018-11-21T09:52:10.112Z,16.23
2018-11-21T09:53:10.109Z,16.26
2018-11-21T09:54:10.103Z,15.15
2018-11-21T09:55:10.101Z,14.63
2018-11-21T09:56:10.103Z,14.23
2018-11-21T09:57:10.099Z,13.75
2018-11-21T09:58:10.098Z,13.94
2018-11-21T09:59:10.097Z,13.28
2018-11-21T10:00:10.089Z,13.06
2018-11-21T10:01:10.087Z,12.94
2018-11-21T10:02:10.084Z,12.58
2018-11-21T10:03:10.081Z,11.98
2018-11-21T10:04:10.085Z,11.19
2018-11-21T10:05:10.083Z,10.66
2018-11-21T10:06:10.078Z,10.14
2018-11-21T10:07:10.078Z,9.74
2018-11-21T10:08:10.069Z,9.30
2018-11-21T10:09:10.071Z,9.24
2018-11-21T10:10:10.071Z,9.23
2018-11-21T10:11:10.064Z,9.41
2018-11-21T10:12:10.058Z,10.04
2018-11-21T10:13:10.055Z,10.55
2018-11-21T10:14:10.049Z,11.16
2018-11-21T10:15:10.046Z,11.16
2018-11-21T10:16:10.047Z,11.30
2018-11-21T10:17:10.044Z,11.20
2018-11-21T10:18:10.038Z,11.35
2018-11-21T10:19:10.034Z,11.88
2018-11-21T10:20:10.026Z,11.96
2018-11-21T10:21:10.023Z,12.19
2018-11-21T10:22:10.017Z,12.44
2018-11-21T10:23:10.014Z,12.94
2018-11-21T10:24:10.015Z,13.12
2018-11-21T10:25:10.011Z,12.30
2018-11-21T10:26:10.001Z,11.87
2018-11-21T10:27:09.999Z,11.75
2018-11-21T10:28:09.999Z,11.67
2018-11-21T10:29:09.997Z,11.77
2018-11-21T10:30:09.993Z,11.94
2018-11-21T10:31:09.990Z,11.78
2018-11-21T10:32:09.982Z,11.77
2018-11-21T10:33:09.977Z,11.81
2018-11-21T10:34:09.973Z,11.08
2018-11-21T10:35:09.973Z,10.68
2018-11-21T10:36:09.972Z,9.96
2018-11-21T10:37:09.968Z,9.49
2018-11-21T10:38:09.961Z,9.19
2018-11-21T10:39:09.957Z,9.15
2018-11-21T10:40:09.948Z,8.89
2018-11-21T10:41:09.944Z,8.60
2018-11-21T10:42:09.942Z,8.42
2018-11-21T10:43:09.937Z,8.34
2018-11-21T10:44:09.928Z,8.18
2018-11-21T10:45:09.926Z,8.07
2018-11-21T10:46:09.917Z,8.14
2018-11-21T10:47:09.911Z,8.42
2018-11-21T10:48:09.908Z,8.40
2018-11-21T10:49:09.902Z,8.49
2018-11-21T10:50:09.894Z,8.40
2018-11-21T10:51:09.890Z,8.36
2018-11-21T10:52:09.877Z,8.13
2018-11-21T10:53:09.871Z,8.13
2018-11-21T10:54:09.864Z,8.31
2018-11-21T10:55:09.858Z,8.43
2018-11-21T10:56:09.855Z,8.40
2018-11-21T10:57:09.850Z,8.61
2018-11-21T10:58:09.835Z,8.91
2018-11-21T10:59:09.832Z,9.31
2018-11-21T11:00:09.827Z,9.55
2018-11-21T11:01:09.820Z,9.80
2018-11-21T11:02:09.810Z,9.89
2018-11-21T11:03:09.804Z,10.07
2018-11-21T11:04:09.792Z,10.24
2018-11-21T11:05:09.786Z,10.51
2018-11-21T11:06:09.778Z,10.46
2018-11-21T11:07:09.772Z,10.87
2018-11-21T11:08:09.772Z,11.20
2018-11-21T11:09:09.764Z,11.27
2018-11-21T11:10:09.759Z,11.59
2018-11-21T11:11:09.757Z,12.13
2018-11-21T11:12:09.742Z,12.22
2018-11-21T11:13:09.739Z,12.00
2018-11-21T11:14:09.738Z,11.79
2018-11-21T11:15:09.730Z,11.72
2018-11-21T11:16:09.721Z,11.31
2018-11-21T11:17:09.715Z,11.01
2018-11-21T11:18:09.709Z,11.16
2018-11-21T11:19:09.704Z,11.11
2018-11-21T11:20:09.704Z,10.46
2018-11-21T11:21:09.698Z,10.34
2018-11-21T11:22:09.692Z,10.47
2018-11-21T11:23:09.689Z,10.55
2018-11-21T11:24:09.678Z,10.68
2018-11-21T11:25:09.672Z,10.57
2018-11-21T11:26:09.665Z,10.57
2018-11-21T11:27:09.659Z,10.49
2018-11-21T11:28:10.314Z,10.39
2018-11-21T11:29:09.654Z,10.54
2018-11-21T11:30:09.641Z,10.34
2018-11-21T11:31:09.637Z,10.36
2018-11-21T11:32:09.634Z,10.26
2018-11-21T11:33:09.629Z,10.25
2018-11-21T11:34:09.621Z,10.20
2018-11-21T11:35:09.615Z,10.20
2018-11-21T11:36:09.606Z,10.24
2018-11-21T11:37:09.597Z,10.13
2018-11-21T11:38:09.592Z,9.99
2018-11-21T11:39:09.585Z,9.86
2018-11-21T11:40:09.588Z,9.55
2018-11-21T11:41:09.574Z,9.44
2018-11-21T11:42:09.568Z,9.32
2018-11-21T11:43:09.562Z,9.27
2018-11-21T11:44:09.551Z,9.10
2018-11-21T11:45:10.204Z,9.06
2018-11-21T11:46:09.539Z,9.00
2018-11-21T11:47:09.534Z,9.03
2018-11-21T11:48:09.519Z,9.01
2018-11-21T11:49:09.513Z,9.04
2018-11-21T11:50:09.503Z,9.20
2018-11-21T11:51:09.497Z,9.26
2018-11-21T11:52:09.493Z,9.38
2018-11-21T11:53:09.520Z,9.27
2018-11-21T11:54:09.478Z,9.31
2018-11-21T11:55:09.470Z,9.03
2018-11-21T11:56:09.456Z,8.76
2018-11-21T11:57:09.450Z,8.76
2018-11-21T11:58:09.440Z,8.79
2018-11-21T11:59:09.437Z,8.85
2018-11-21T12:00:09.429Z,8.89
2018-11-21T12:01:09.421Z,8.83
2018-11-21T12:02:13.151Z,8.85
2018-11-21T12:03:09.399Z,8.88
2018-11-21T12:04:09.399Z,8.52
2018-11-21T12:05:09.389Z,8.45
2018-11-21T12:06:09.382Z,8.46
2018-11-21T12:07:09.372Z,8.45
2018-11-21T12:08:09.359Z,8.49
2018-11-21T12:09:09.351Z,8.52
2018-11-21T12:10:09.345Z,8.75
2018-11-21T12:11:09.336Z,8.80
2018-11-21T12:12:09.332Z,8.85
2018-11-21T12:13:09.323Z,8.89
2018-11-21T12:14:09.314Z,8.94
2018-11-21T12:15:09.305Z,8.65
2018-11-21T12:16:09.294Z,8.40
2018-11-21T12:17:09.284Z,8.25
2018-11-21T12:18:09.279Z,8.22
2018-11-21T12:19:09.271Z,8.22
2018-11-21T12:20:09.260Z,8.22
2018-11-21T12:21:09.249Z,8.14
2018-11-21T12:22:09.241Z,8.07
2018-11-21T12:23:09.232Z,8.06
2018-11-21T12:24:09.229Z,8.07
2018-11-21T12:25:09.223Z,8.12
2018-11-21T12:26:10.624Z,8.06
2018-11-21T12:27:09.201Z,8.03
2018-11-21T12:28:09.192Z,8.13
2018-11-21T12:29:09.181Z,8.13
2018-11-21T12:30:09.168Z,8.18
2018-11-21T12:31:09.160Z,8.22
2018-11-21T12:32:09.159Z,8.28
2018-11-21T12:33:09.151Z,8.37
2018-11-21T12:34:09.133Z,8.45
2018-11-21T12:35:09.125Z,8.49
2018-11-21T12:36:09.120Z,8.54
2018-11-21T12:37:09.120Z,8.36
2018-11-21T12:38:09.104Z,8.29
2018-11-21T12:39:09.092Z,8.37
2018-11-21T12:40:09.078Z,8.37
2018-11-21T12:41:09.069Z,8.21
2018-11-21T12:42:09.062Z,8.22
2018-11-21T12:43:13.248Z,8.27
2018-11-21T12:44:09.048Z,8.31
2018-11-21T12:45:09.037Z,8.37
2018-11-21T12:46:09.028Z,8.45
2018-11-21T12:47:09.019Z,8.39
2018-11-21T12:48:09.006Z,8.40
2018-11-21T12:49:08.997Z,8.45
2018-11-21T12:50:08.990Z,8.29
2018-11-21T12:51:08.982Z,8.22
2018-11-21T12:52:08.967Z,8.25
2018-11-21T12:53:08.959Z,8.14
2018-11-21T12:54:08.955Z,8.21
2018-11-21T12:55:08.939Z,8.25
2018-11-21T12:56:08.940Z,8.31
2018-11-21T12:57:08.926Z,8.37
2018-11-21T12:58:08.916Z,8.37
2018-11-21T12:59:08.907Z,8.29
2018-11-21T13:00:08.893Z,8.27
2018-11-21T13:01:08.885Z,8.34
2018-11-21T13:02:08.875Z,8.32
2018-11-21T13:03:08.865Z,8.39
2018-11-21T13:04:08.864Z,8.47
2018-11-21T13:05:08.852Z,8.46
2018-11-21T13:06:08.835Z,8.54
2018-11-21T13:07:08.830Z,8.50
2018-11-21T13:08:08.827Z,8.42
2018-11-21T13:09:08.813Z,8.42
2018-11-21T13:10:08.803Z,8.42
2018-11-21T13:11:08.795Z,8.52
2018-11-21T13:12:08.780Z,8.50
2018-11-21T13:13:08.772Z,8.55
2018-11-21T13:14:08.762Z,8.58